Time;durP1;ratioP1;P1;durP2;ratioP2;P2;SDS_P1;SDS_P2;PMS_P1;PMS_P2;Temp;Humidity;BMP_temperature;BMP_pressure;BME280_temperature;BME280_humidity;BME280_pressure;Samples;Min_cycle;Max_cycle;Signal;HPM_P1;HPM_P2
2023/03/08 00:01:21;;;;;;;12.90;7.60;;;0.30;99.90;;;;;;5041246;28;20343;-73
2023/03/08 00:03:55;;;;;;;12.77;7.87;;;0.30;99.90;;;;;;5023661;28;20748;-72
2023/03/08 00:06:22;;;;;;;13.03;7.70;;;0.20;99.90;;;;;;5041811;28;21004;-72
2023/03/08 00:08:52;;;;;;;15.43;7.77;;;0.20;99.90;;;;;;5040199;28;20588;-72
2023/03/08 00:11:19;;;;;;;16.50;7.80;;;0.20;99.90;;;;;;5041804;28;20220;-74
2023/03/08 00:13:46;;;;;;;10.90;7.57;;;0.20;99.90;;;;;;5046472;28;20600;-71
2023/03/08 00:16:13;;;;;;;14.30;8.20;;;0.20;99.90;;;;;;5039216;28;20218;-73
2023/03/08 00:18:40;;;;;;;15.93;8.20;;;0.20;99.90;;;;;;5045184;28;20226;-73
2023/03/08 00:21:13;;;;;;;13.97;7.90;;;0.20;99.90;;;;;;5042647;28;20237;-71
2023/03/08 00:23:41;;;;;;;11.77;7.00;;;0.10;99.90;;;;;;5039278;28;20275;-72
2023/03/08 00:26:09;;;;;;;11.67;7.00;;;0.10;99.90;;;;;;5038288;28;20237;-72
2023/03/08 00:28:36;;;;;;;15.17;8.00;;;0.10;99.90;;;;;;5047155;28;20203;-72
2023/03/08 00:31:06;;;;;;;11.90;7.10;;;0.30;99.90;;;;;;5046983;28;20208;-73
2023/03/08 00:33:34;;;;;;;13.13;6.87;;;0.10;99.90;;;;;;5041624;28;20312;-72
2023/03/08 00:36:02;;;;;;;12.17;7.27;;;0.10;99.90;;;;;;5038685;28;20577;-72
2023/03/08 00:38:31;;;;;;;12.23;7.30;;;0.10;99.90;;;;;;5043191;28;20211;-74
2023/03/08 00:40:59;;;;;;;12.00;6.73;;;0.20;99.90;;;;;;5039827;28;20746;-73
2023/03/08 00:43:28;;;;;;;10.27;6.73;;;0.10;99.90;;;;;;5027628;28;20273;-72
2023/03/08 00:45:54;;;;;;;12.40;6.80;;;0.10;99.90;;;;;;5041939;28;20246;-73
2023/03/08 00:48:21;;;;;;;11.60;7.10;;;0.10;99.90;;;;;;5039760;28;20264;-73
2023/03/08 00:50:48;;;;;;;14.53;7.07;;;0.00;99.90;;;;;;5038373;28;20389;-72
2023/03/08 00:53:15;;;;;;;14.10;6.70;;;0.00;99.90;;;;;;5042944;28;20304;-73
2023/03/08 00:55:56;;;;;;;10.67;6.80;;;0.00;99.90;;;;;;5046462;28;20303;-72
2023/03/08 00:58:24;;;;;;;10.70;6.63;;;0.00;99.90;;;;;;5043854;28;20269;-72
2023/03/08 01:00:51;;;;;;;8.67;6.50;;;0.00;99.90;;;;;;5027575;28;20320;-73
2023/03/08 01:03:18;;;;;;;12.70;6.70;;;0.00;99.90;;;;;;5040107;28;20795;-73
2023/03/08 01:05:48;;;;;;;9.57;6.50;;;0.00;99.90;;;;;;5040499;28;20330;-73
2023/03/08 01:08:17;;;;;;;10.53;6.97;;;0.10;99.90;;;;;;5024538;28;20243;-73
2023/03/08 01:10:57;;;;;;;12.17;6.10;;;0.10;99.90;;;;;;5030904;28;20208;-72
2023/03/08 01:13:27;;;;;;;7.43;5.80;;;0.10;99.90;;;;;;5021183;28;20224;-72
2023/03/08 01:15:53;;;;;;;8.43;6.33;;;0.00;99.90;;;;;;5032353;28;20206;-72
2023/03/08 01:18:21;;;;;;;9.97;6.40;;;0.00;99.90;;;;;;5039802;28;20284;-73
2023/03/08 01:20:56;;;;;;;12.10;6.30;;;-0.10;99.90;;;;;;5042467;28;20233;-73
2023/03/08 01:23:23;;;;;;;9.30;6.40;;;-0.10;99.90;;;;;;5039372;28;20275;-74
2023/03/08 01:25:58;;;;;;;12.33;6.50;;;0.00;99.90;;;;;;5042293;28;20262;-72
2023/03/08 01:28:25;;;;;;;10.83;5.87;;;-0.10;99.90;;;;;;5040559;28;20188;-73
2023/03/08 01:30:51;;;;;;;9.67;7.23;;;-0.10;99.90;;;;;;5026066;28;20209;-74
2023/03/08 01:33:19;;;;;;;10.40;6.43;;;-0.10;99.90;;;;;;5008388;28;20289;-73
2023/03/08 01:35:47;;;;;;;9.93;6.10;;;-0.10;99.90;;;;;;5024819;28;20205;-72
2023/03/08 01:38:13;;;;;;;8.07;5.80;;;-0.10;99.90;;;;;;5038347;28;20297;-73
2023/03/08 01:40:40;;;;;;;10.30;6.60;;;-0.10;99.90;;;;;;5040185;28;20206;-72
2023/03/08 01:43:28;;;;;;;9.50;6.87;;;-0.10;99.90;;;;;;5040221;28;20666;-73
2023/03/08 01:46:14;;;;;;;11.60;7.07;;;-0.10;99.90;;;;;;5039835;28;20700;-73
2023/03/08 01:49:08;;;;;;;7.80;6.40;;;-0.10;99.90;;;;;;5006495;28;20742;-72
2023/03/08 01:51:46;;;;;;;11.47;7.57;;;0.00;99.90;;;;;;5039464;28;20215;-72
2023/03/08 01:54:14;;;;;;;10.70;7.00;;;0.10;99.90;;;;;;5042092;28;20686;-73
2023/03/08 01:56:43;;;;;;;9.30;7.13;;;0.10;99.90;;;;;;5038922;28;20204;-73
2023/03/08 01:59:11;;;;;;;11.00;6.93;;;0.10;99.90;;;;;;5044272;28;20281;-72
2023/03/08 02:01:38;;;;;;;11.57;7.27;;;0.10;99.90;;;;;;5022675;28;20242;-73
2023/03/08 02:04:06;;;;;;;11.10;7.00;;;0.10;99.90;;;;;;5038704;28;20222;-73
2023/03/08 02:06:33;;;;;;;12.60;7.80;;;0.10;99.90;;;;;;5037935;28;20243;-73
2023/03/08 02:09:03;;;;;;;13.10;7.23;;;0.10;99.90;;;;;;5042187;28;20219;-73
2023/03/08 02:11:33;;;;;;;14.10;7.40;;;0.10;99.90;;;;;;5024980;28;20287;-72
2023/03/08 02:14:00;;;;;;;11.27;7.57;;;0.10;99.90;;;;;;5037596;28;20246;-72
2023/03/08 02:16:26;;;;;;;11.73;8.47;;;0.10;99.90;;;;;;5023777;28;20213;-73
2023/03/08 02:19:01;;;;;;;14.63;9.37;;;0.10;99.90;;;;;;5041196;28;20308;-73
2023/03/08 02:21:29;;;;;;;13.13;7.73;;;0.00;99.90;;;;;;5005834;28;20261;-72
2023/03/08 02:24:06;;;;;;;15.20;9.07;;;0.00;99.90;;;;;;5037180;28;20219;-74
2023/03/08 02:26:35;;;;;;;13.90;8.90;;;0.00;99.90;;;;;;5042775;28;20220;-74
2023/03/08 02:29:02;;;;;;;16.53;10.00;;;0.00;99.90;;;;;;5021774;28;20289;-73
2023/03/08 02:31:29;;;;;;;12.63;9.37;;;0.00;99.90;;;;;;5035004;28;20744;-73
2023/03/08 02:33:55;;;;;;;13.80;9.60;;;0.00;99.90;;;;;;5040822;28;20225;-73
2023/03/08 02:36:22;;;;;;;14.37;10.70;;;-0.10;99.90;;;;;;5045571;28;20711;-72
2023/03/08 02:38:49;;;;;;;13.37;9.67;;;-0.10;99.90;;;;;;5041995;28;20411;-73
2023/03/08 02:41:16;;;;;;;15.07;10.93;;;-0.10;99.90;;;;;;5039468;28;20232;-72
2023/03/08 02:43:42;;;;;;;19.57;11.00;;;-0.10;99.90;;;;;;5039602;28;20204;-74
2023/03/08 02:46:13;;;;;;;19.80;12.43;;;-0.10;99.90;;;;;;5038851;28;20250;-73
2023/03/08 02:48:40;;;;;;;23.13;13.10;;;-0.20;99.90;;;;;;5029088;28;20231;-73
2023/03/08 02:51:07;;;;;;;20.87;14.07;;;-0.20;99.90;;;;;;5029867;28;20217;-73
2023/03/08 02:53:33;;;;;;;25.07;14.63;;;0.00;99.90;;;;;;5035230;28;20904;-73
2023/03/08 02:56:00;;;;;;;23.37;14.30;;;-0.10;99.90;;;;;;5041661;28;20206;-72
2023/03/08 02:58:27;;;;;;;22.07;14.23;;;-0.10;99.90;;;;;;5041695;28;20295;-73
2023/03/08 03:00:53;;;;;;;22.00;14.60;;;-0.10;99.90;;;;;;5020264;28;20220;-71
2023/03/08 03:03:20;;;;;;;24.43;15.33;;;-0.20;99.90;;;;;;5019914;28;20259;-72
2023/03/08 03:05:47;;;;;;;23.33;14.83;;;-0.10;99.90;;;;;;5037092;28;20278;-72
2023/03/08 03:08:14;;;;;;;23.90;15.43;;;-0.30;99.90;;;;;;5039477;28;20203;-73
2023/03/08 03:10:43;;;;;;;24.60;14.97;;;-0.20;99.90;;;;;;5022486;28;20208;-72
2023/03/08 03:13:09;;;;;;;26.80;16.27;;;-0.30;99.90;;;;;;5041366;28;20214;-73
2023/03/08 03:15:39;;;;;;;25.07;15.97;;;-0.30;99.90;;;;;;5019888;28;20222;-72
2023/03/08 03:18:06;;;;;;;25.07;16.00;;;-0.40;99.90;;;;;;5038155;28;20354;-73
2023/03/08 03:20:33;;;;;;;28.70;18.00;;;-0.40;99.90;;;;;;5044879;28;20301;-73
2023/03/08 03:23:00;;;;;;;28.90;18.50;;;-0.40;99.90;;;;;;5038568;28;20232;-73
2023/03/08 03:25:26;;;;;;;29.90;18.67;;;-0.40;99.90;;;;;;5043142;28;20234;-72
2023/03/08 03:27:54;;;;;;;32.87;19.97;;;-0.50;99.90;;;;;;5047335;28;20615;-73
2023/03/08 03:30:21;;;;;;;40.13;23.33;;;-0.50;99.90;;;;;;5040227;28;20290;-73
2023/03/08 03:32:48;;;;;;;31.70;21.13;;;-0.50;99.90;;;;;;5040480;28;20309;-73
2023/03/08 03:35:15;;;;;;;36.50;21.53;;;-0.50;99.90;;;;;;5043392;28;20208;-73
2023/03/08 03:37:42;;;;;;;37.53;22.63;;;-0.50;99.90;;;;;;5027051;28;20239;-73
2023/03/08 03:40:10;;;;;;;37.80;22.97;;;-0.50;99.90;;;;;;5023442;28;20213;-74
2023/03/08 03:42:37;;;;;;;37.57;21.73;;;-0.50;99.90;;;;;;5040074;28;20230;-72
2023/03/08 03:45:04;;;;;;;33.10;21.63;;;-0.50;99.90;;;;;;5040122;28;20197;-73
2023/03/08 03:47:31;;;;;;;36.43;21.83;;;-0.50;99.90;;;;;;5026846;28;20244;-73
2023/03/08 03:49:58;;;;;;;34.60;21.70;;;-0.50;99.90;;;;;;5041638;28;20202;-73
2023/03/08 03:52:25;;;;;;;31.97;19.70;;;-0.50;99.90;;;;;;5039701;28;20711;-73
2023/03/08 03:54:51;;;;;;;35.10;21.67;;;-0.50;99.90;;;;;;5049692;28;20198;-73
2023/03/08 03:57:19;;;;;;;40.77;24.07;;;-0.60;99.90;;;;;;5042480;28;20261;-73
2023/03/08 03:59:46;;;;;;;42.77;25.13;;;-0.60;99.90;;;;;;5025225;28;20702;-75
2023/03/08 04:02:12;;;;;;;42.73;25.70;;;-0.60;99.90;;;;;;5044009;28;20304;-74
2023/03/08 04:04:39;;;;;;;46.77;25.57;;;-0.60;99.90;;;;;;5037549;28;20251;-75
2023/03/08 04:07:06;;;;;;;43.20;26.17;;;-0.60;99.90;;;;;;5039803;28;20208;-73
2023/03/08 04:09:34;;;;;;;46.73;25.67;;;-0.60;99.90;;;;;;5026429;28;20239;-72
2023/03/08 04:12:04;;;;;;;43.63;26.23;;;-0.50;99.90;;;;;;5041681;28;20203;-72
2023/03/08 04:14:31;;;;;;;40.80;25.30;;;-0.50;99.90;;;;;;5038225;28;20222;-73
2023/03/08 04:16:57;;;;;;;46.17;26.50;;;-0.50;99.90;;;;;;5039786;28;20256;-73
2023/03/08 04:19:24;;;;;;;45.47;27.03;;;-0.50;99.90;;;;;;5043478;28;20258;-74
2023/03/08 04:21:51;;;;;;;43.67;25.53;;;-0.50;99.90;;;;;;5043177;28;20236;-72
2023/03/08 04:24:18;;;;;;;49.97;25.77;;;-0.50;99.90;;;;;;5040436;28;20211;-73
2023/03/08 04:26:44;;;;;;;51.47;28.00;;;-0.60;99.90;;;;;;5047313;28;20301;-73
2023/03/08 04:29:11;;;;;;;51.90;29.67;;;-0.50;99.90;;;;;;5007562;28;20355;-73
2023/03/08 04:31:38;;;;;;;64.93;31.27;;;-0.60;99.90;;;;;;5038265;28;20749;-72
2023/03/08 04:34:05;;;;;;;58.07;30.60;;;-0.60;99.90;;;;;;5041802;28;20219;-72
2023/03/08 04:36:32;;;;;;;62.27;33.07;;;-0.60;99.90;;;;;;5039713;28;20942;-73
2023/03/08 04:38:59;;;;;;;66.73;33.93;;;-0.60;99.90;;;;;;5043720;28;20301;-73
2023/03/08 04:41:26;;;;;;;67.90;33.50;;;-0.60;99.90;;;;;;5041616;28;20210;-72
2023/03/08 04:43:55;;;;;;;71.30;34.53;;;-0.60;99.90;;;;;;5023990;28;20221;-73
2023/03/08 04:46:24;;;;;;;73.80;32.97;;;-0.50;99.90;;;;;;5039331;28;20242;-73
2023/03/08 04:48:54;;;;;;;71.77;32.33;;;-0.50;99.90;;;;;;5024930;28;20226;-74
2023/03/08 04:51:23;;;;;;;82.13;36.97;;;-0.50;99.90;;;;;;5043879;28;20208;-73
2023/03/08 04:53:49;;;;;;;87.73;36.77;;;-0.40;99.90;;;;;;5045345;28;20289;-72
2023/03/08 04:56:17;;;;;;;89.83;34.43;;;-0.40;99.90;;;;;;5050502;28;20323;-72
2023/03/08 04:58:44;;;;;;;86.70;35.53;;;-0.30;99.90;;;;;;5040360;28;20244;-73
2023/03/08 05:01:16;;;;;;;94.57;36.20;;;-0.30;99.90;;;;;;5042614;28;20568;-72
2023/03/08 05:03:43;;;;;;;107.13;36.37;;;-0.30;99.90;;;;;;5024699;28;20350;-74
2023/03/08 05:06:13;;;;;;;82.77;35.70;;;-0.30;99.90;;;;;;5007568;28;20641;-72
2023/03/08 05:08:40;;;;;;;116.27;36.60;;;-0.20;99.90;;;;;;5039689;28;20212;-74
2023/03/08 05:11:07;;;;;;;96.67;35.10;;;-0.20;99.90;;;;;;5024794;28;20211;-72
2023/03/08 05:13:36;;;;;;;96.23;34.10;;;-0.20;99.90;;;;;;5022066;28;20220;-72
2023/03/08 05:16:05;;;;;;;106.50;33.43;;;-0.20;99.90;;;;;;5038687;28;20789;-73
2023/03/08 05:18:31;;;;;;;82.67;32.53;;;-0.20;99.90;;;;;;5024443;28;20225;-74
2023/03/08 05:21:01;;;;;;;98.23;34.33;;;-0.20;99.90;;;;;;5042609;28;20227;-73
2023/03/08 05:23:28;;;;;;;96.07;32.27;;;-0.20;99.90;;;;;;5023454;28;20239;-73
2023/03/08 05:25:57;;;;;;;97.47;32.73;;;-0.20;99.90;;;;;;5040353;28;20212;-74
2023/03/08 05:28:26;;;;;;;107.37;34.83;;;-0.20;99.90;;;;;;5042259;28;20311;-72
2023/03/08 05:31:00;;;;;;;112.03;34.00;;;-0.20;99.90;;;;;;5029066;28;20252;-73
2023/03/08 05:33:27;;;;;;;105.67;34.23;;;-0.20;99.90;;;;;;5040052;28;20222;-74
2023/03/08 05:35:54;;;;;;;140.07;36.13;;;-0.20;99.90;;;;;;5025956;28;20713;-72
2023/03/08 05:38:22;;;;;;;132.93;37.37;;;-0.10;99.90;;;;;;5041163;28;20305;-73
2023/03/08 05:40:49;;;;;;;154.93;37.40;;;-0.10;99.90;;;;;;5038832;28;20219;-73
2023/03/08 05:43:16;;;;;;;142.13;38.10;;;-0.10;99.90;;;;;;5036655;28;20326;-75
2023/03/08 05:45:52;;;;;;;164.63;39.40;;;-0.10;99.90;;;;;;5023978;28;20200;-73
2023/03/08 05:48:19;;;;;;;151.63;40.73;;;-0.10;99.90;;;;;;5023594;28;20766;-73
2023/03/08 05:50:47;;;;;;;140.37;38.33;;;0.00;99.90;;;;;;5038780;28;20287;-72
2023/03/08 05:53:13;;;;;;;124.50;35.90;;;0.00;99.90;;;;;;5041791;28;20258;-72
2023/03/08 05:55:40;;;;;;;129.17;35.77;;;0.00;99.90;;;;;;5045441;28;20208;-72
2023/03/08 05:58:07;;;;;;;116.83;37.07;;;0.00;99.90;;;;;;5043650;28;20205;-74
2023/03/08 06:00:33;;;;;;;118.73;36.10;;;0.10;99.90;;;;;;5044860;28;20279;-71
2023/03/08 06:03:03;;;;;;;149.83;37.27;;;0.10;99.90;;;;;;5038405;28;20711;-72
2023/03/08 06:05:31;;;;;;;199.00;39.43;;;0.10;99.90;;;;;;5043466;28;20975;-72
2023/03/08 06:07:58;;;;;;;173.90;36.43;;;0.10;99.90;;;;;;5041547;28;20233;-72
2023/03/08 06:10:25;;;;;;;165.80;36.70;;;0.10;99.90;;;;;;5039366;28;20204;-71
2023/03/08 06:12:52;;;;;;;185.87;35.97;;;0.20;99.90;;;;;;5040814;28;20881;-72
2023/03/08 06:15:19;;;;;;;157.73;37.13;;;0.20;99.90;;;;;;5022219;28;20241;-73
2023/03/08 06:17:46;;;;;;;150.27;33.40;;;0.20;99.90;;;;;;5040461;28;20300;-72
2023/03/08 06:20:15;;;;;;;143.70;35.97;;;0.20;99.90;;;;;;5051245;28;20201;-73
2023/03/08 06:22:42;;;;;;;145.70;34.23;;;0.20;99.90;;;;;;5042496;28;20282;-73
2023/03/08 06:25:09;;;;;;;159.83;35.57;;;0.20;99.90;;;;;;5045234;28;20197;-73
2023/03/08 06:27:35;;;;;;;132.57;35.57;;;0.20;99.90;;;;;;5022518;28;20904;-71
2023/03/08 06:30:02;;;;;;;184.13;37.10;;;;;;;;;;5049680;28;20657;-72
2023/03/08 06:32:29;;;;;;;167.57;39.07;;;0.20;99.90;;;;;;5043990;28;20213;-72
2023/03/08 06:34:56;;;;;;;170.10;37.23;;;0.20;99.90;;;;;;5047408;28;20572;-72
2023/03/08 06:37:23;;;;;;;189.37;38.37;;;0.20;99.90;;;;;;5041269;28;20213;-73
2023/03/08 06:39:49;;;;;;;165.67;36.07;;;0.30;99.90;;;;;;5020217;28;20214;-72
2023/03/08 06:42:16;;;;;;;165.50;37.07;;;0.30;99.90;;;;;;5023363;28;20579;-72
2023/03/08 06:44:43;;;;;;;207.50;39.30;;;0.30;99.90;;;;;;5036344;28;20228;-74
2023/03/08 06:47:09;;;;;;;191.60;44.90;;;0.40;99.90;;;;;;5039188;28;20309;-71
2023/03/08 06:49:36;;;;;;;187.87;37.37;;;0.30;99.90;;;;;;5023042;28;20208;-74
2023/03/08 06:52:03;;;;;;;267.53;43.37;;;0.40;99.90;;;;;;5042479;28;20206;-72
2023/03/08 06:54:30;;;;;;;179.67;39.30;;;0.40;99.90;;;;;;5037619;28;20584;-72
2023/03/08 06:56:56;;;;;;;193.20;37.87;;;0.50;99.90;;;;;;5030730;28;20218;-73
2023/03/08 06:59:23;;;;;;;169.80;38.20;;;0.50;99.90;;;;;;5046556;28;20203;-71
2023/03/08 07:01:50;;;;;;;242.60;46.20;;;0.50;99.90;;;;;;5025204;28;20206;-72
2023/03/08 07:04:19;;;;;;;201.47;42.20;;;0.60;99.90;;;;;;5046603;28;20300;-73
2023/03/08 07:06:46;;;;;;;205.87;40.70;;;0.70;99.90;;;;;;5044360;28;20221;-75
2023/03/08 07:09:13;;;;;;;252.13;45.57;;;0.70;99.90;;;;;;5029604;28;20201;-74
2023/03/08 07:11:40;;;;;;;234.40;43.10;;;0.70;99.90;;;;;;5026388;28;20231;-74
2023/03/08 07:14:06;;;;;;;189.57;41.77;;;0.80;99.90;;;;;;5029908;28;20304;-74
2023/03/08 07:16:33;;;;;;;250.27;45.40;;;0.80;99.90;;;;;;5030063;28;20309;-74
2023/03/08 07:19:01;;;;;;;191.70;45.40;;;0.80;99.90;;;;;;5042720;28;20209;-72
2023/03/08 07:21:28;;;;;;;186.63;43.17;;;0.80;99.90;;;;;;5042503;28;20601;-74
2023/03/08 07:23:55;;;;;;;182.23;46.87;;;0.90;99.90;;;;;;5043416;28;20234;-73
2023/03/08 07:26:21;;;;;;;138.50;37.87;;;0.90;99.90;;;;;;5044814;28;20209;-72
2023/03/08 07:28:50;;;;;;;147.10;39.40;;;1.00;99.90;;;;;;5026598;28;20206;-74
2023/03/08 07:31:17;;;;;;;159.20;39.83;;;1.00;99.90;;;;;;5026673;28;20786;-73
2023/03/08 07:33:43;;;;;;;160.00;40.30;;;1.00;99.90;;;;;;5025790;28;20232;-71
2023/03/08 07:36:10;;;;;;;146.60;38.60;;;1.00;99.90;;;;;;5041811;28;20311;-72
2023/03/08 07:38:37;;;;;;;139.80;36.23;;;1.00;99.90;;;;;;5044513;28;20301;-72
2023/03/08 07:41:04;;;;;;;132.63;38.03;;;1.00;99.90;;;;;;5032677;28;20591;-71
2023/03/08 07:43:31;;;;;;;116.03;36.43;;;1.00;99.90;;;;;;5032356;28;20229;-72
2023/03/08 07:46:01;;;;;;;114.07;35.43;;;0.90;99.90;;;;;;5020862;28;20655;-71
2023/03/08 07:48:28;;;;;;;121.27;36.33;;;1.10;99.90;;;;;;5032819;28;20272;-71
2023/03/08 07:51:01;;;;;;;116.60;35.37;;;1.10;99.90;;;;;;5036846;28;20209;-71
2023/03/08 07:53:28;;;;;;;126.53;37.23;;;1.00;99.90;;;;;;5041649;28;20573;-72
2023/03/08 07:55:57;;;;;;;113.77;35.07;;;1.20;99.90;;;;;;5043551;28;20284;-72
2023/03/08 07:58:25;;;;;;;106.87;34.93;;;1.20;99.90;;;;;;5043172;28;20209;-71
2023/03/08 08:00:52;;;;;;;114.57;35.60;;;1.20;99.90;;;;;;5040712;28;20212;-71
2023/03/08 08:03:19;;;;;;;109.80;33.17;;;1.30;99.90;;;;;;5040823;28;20265;-71
2023/03/08 08:05:46;;;;;;;98.33;33.27;;;1.30;99.90;;;;;;5041274;28;20710;-73
2023/03/08 08:08:13;;;;;;;109.30;32.60;;;1.30;99.90;;;;;;5042255;28;20205;-71
2023/03/08 08:10:41;;;;;;;97.90;31.73;;;1.30;99.90;;;;;;5025050;28;20566;-72
2023/03/08 08:13:08;;;;;;;97.87;32.53;;;1.30;99.90;;;;;;5028419;28;20257;-72
2023/03/08 08:15:34;;;;;;;103.97;32.93;;;1.30;99.90;;;;;;5044116;28;20208;-72
2023/03/08 08:18:01;;;;;;;101.83;32.67;;;1.20;99.90;;;;;;5043635;28;20216;-73
2023/03/08 08:20:28;;;;;;;101.03;31.43;;;1.30;99.90;;;;;;5024090;28;20202;-71
2023/03/08 08:22:55;;;;;;;84.83;31.13;;;1.30;99.90;;;;;;5045474;28;20256;-72
2023/03/08 08:25:22;;;;;;;86.83;30.63;;;1.30;99.90;;;;;;5042466;28;20209;-71
2023/03/08 08:27:49;;;;;;;89.77;29.80;;;1.30;99.90;;;;;;5025921;28;20206;-70
2023/03/08 08:30:16;;;;;;;102.27;33.63;;;1.40;99.90;;;;;;5028702;28;20227;-71
2023/03/08 08:32:43;;;;;;;94.87;31.80;;;1.40;99.90;;;;;;5041072;28;20261;-71
2023/03/08 08:35:10;;;;;;;85.93;28.20;;;1.30;99.90;;;;;;5046123;28;20209;-71
2023/03/08 08:37:36;;;;;;;81.43;30.73;;;1.30;99.90;;;;;;5039464;28;20600;-73
2023/03/08 08:40:06;;;;;;;86.67;31.03;;;1.30;99.90;;;;;;5027736;28;20220;-70
2023/03/08 08:42:33;;;;;;;83.93;30.13;;;1.30;99.90;;;;;;5037845;28;20198;-71
2023/03/08 08:45:00;;;;;;;79.10;29.93;;;1.20;99.90;;;;;;5042610;28;20292;-70
2023/03/08 08:47:28;;;;;;;80.77;28.63;;;1.30;99.90;;;;;;5025270;28;20296;-72
2023/03/08 08:49:55;;;;;;;72.77;29.47;;;1.30;99.90;;;;;;5044963;28;20228;-71
2023/03/08 08:52:21;;;;;;;73.77;27.57;;;1.40;99.90;;;;;;5042496;28;20196;-73
2023/03/08 08:54:50;;;;;;;79.20;27.77;;;1.40;99.90;;;;;;5043776;28;20221;-72
2023/03/08 08:57:17;;;;;;;86.90;28.57;;;1.50;99.90;;;;;;5041417;28;20606;-71
2023/03/08 08:59:45;;;;;;;76.30;27.37;;;1.50;99.90;;;;;;5037362;28;20616;-70
2023/03/08 09:02:11;;;;;;;76.23;28.83;;;1.60;99.90;;;;;;5042031;28;20208;-70
2023/03/08 09:04:38;;;;;;;80.27;28.57;;;1.60;99.90;;;;;;5037624;28;20230;-70
2023/03/08 09:07:06;;;;;;;74.73;28.73;;;1.60;99.90;;;;;;5022471;28;20596;-72
2023/03/08 09:09:34;;;;;;;79.40;27.63;;;1.60;99.90;;;;;;5023152;28;20254;-70
2023/03/08 09:12:00;;;;;;;80.33;26.53;;;1.70;99.90;;;;;;5026013;28;20697;-71
2023/03/08 09:14:27;;;;;;;78.10;30.33;;;1.70;99.90;;;;;;5043076;28;20212;-71
2023/03/08 09:16:54;;;;;;;73.57;27.00;;;1.80;99.90;;;;;;5042841;28;20607;-71
2023/03/08 09:19:21;;;;;;;78.90;28.53;;;1.80;99.90;;;;;;5016283;28;20698;-71
2023/03/08 09:21:47;;;;;;;81.07;30.23;;;1.80;99.90;;;;;;5037068;28;20220;-70
2023/03/08 09:24:15;;;;;;;86.67;29.37;;;1.80;99.90;;;;;;5035368;28;20231;-71
2023/03/08 09:26:42;;;;;;;78.60;28.47;;;1.80;99.90;;;;;;5043212;28;20202;-70
2023/03/08 09:29:09;;;;;;;82.40;29.73;;;1.90;99.90;;;;;;5022868;28;20300;-72
2023/03/08 09:31:37;;;;;;;72.30;28.10;;;1.90;99.90;;;;;;5024591;28;20212;-72
2023/03/08 09:34:07;;;;;;;77.87;28.17;;;1.90;99.90;;;;;;5041513;28;20314;-72
2023/03/08 09:36:40;;;;;;;79.47;28.27;;;1.90;99.90;;;;;;5039458;28;20215;-74
2023/03/08 09:39:09;;;;;;;69.53;26.33;;;1.80;99.90;;;;;;5040110;28;20234;-71
2023/03/08 09:41:58;;;;;;;78.63;26.90;;;1.90;99.90;;;;;;5037618;28;20228;-72
2023/03/08 09:45:00;;;;;;;79.90;28.50;;;1.90;99.90;;;;;;5023939;28;20630;-71
2023/03/08 09:47:42;;;;;;;77.63;26.50;;;2.00;99.90;;;;;;5038729;28;20230;-71
2023/03/08 09:50:12;;;;;;;76.43;28.90;;;2.00;99.90;;;;;;5042291;28;20201;-72
2023/03/08 09:52:50;;;;;;;79.60;29.00;;;1.90;99.90;;;;;;5037410;28;20234;-71
2023/03/08 09:55:29;;;;;;;98.80;32.27;;;2.00;99.90;;;;;;5041382;28;20536;-71
2023/03/08 09:58:00;;;;;;;85.77;30.60;;;2.00;99.90;;;;;;5039423;28;20209;-71
2023/03/08 10:00:33;;;;;;;89.50;32.00;;;2.10;99.90;;;;;;5037222;28;20608;-74
2023/03/08 10:03:26;;;;;;;90.37;30.43;;;2.20;99.90;;;;;;5041589;28;20241;-71
2023/03/08 10:06:06;;;;;;;98.37;33.00;;;2.20;99.90;;;;;;5038270;28;20726;-71
2023/03/08 10:08:48;;;;;;;93.83;31.47;;;2.30;99.90;;;;;;5038621;28;20294;-72
2023/03/08 10:11:30;;;;;;;92.13;30.63;;;2.30;99.90;;;;;;5040923;28;20668;-71
2023/03/08 10:14:01;;;;;;;84.37;29.23;;;2.40;99.90;;;;;;5040888;28;20205;-71
2023/03/08 10:16:46;;;;;;;86.47;30.43;;;2.40;99.90;;;;;;5041228;28;20299;-71
2023/03/08 10:19:16;;;;;;;89.67;31.83;;;2.40;99.90;;;;;;5039010;28;20231;-70
2023/03/08 10:21:44;;;;;;;82.10;29.93;;;2.50;99.90;;;;;;5043776;28;20294;-71
2023/03/08 10:24:48;;;;;;;89.37;32.07;;;2.70;99.90;;;;;;5043470;28;20264;-71
2023/03/08 10:27:24;;;;;;;93.70;31.33;;;2.80;99.90;;;;;;5024435;28;20238;-72
2023/03/08 10:29:56;;;;;;;88.00;31.50;;;2.90;99.90;;;;;;5041999;28;20245;-71
2023/03/08 10:32:24;;;;;;;83.17;31.33;;;3.00;99.90;;;;;;5028252;28;20235;-71
2023/03/08 10:34:51;;;;;;;78.90;29.63;;;3.10;99.90;;;;;;5047970;28;20227;-70
2023/03/08 10:37:23;;;;;;;80.97;32.33;;;3.30;99.90;;;;;;5043387;28;20229;-71
2023/03/08 10:39:52;;;;;;;77.33;28.27;;;;;;;;;;5040732;28;20217;-71
2023/03/08 10:42:21;;;;;;;80.47;29.30;;;3.50;99.90;;;;;;5045913;28;20629;-71
2023/03/08 10:45:01;;;;;;;67.50;27.50;;;3.60;99.90;;;;;;5028010;28;20330;-71
2023/03/08 10:47:34;;;;;;;75.97;29.20;;;3.70;99.90;;;;;;5037087;28;20868;-71
2023/03/08 10:50:08;;;;;;;64.43;26.50;;;3.80;99.90;;;;;;5044113;28;20321;-71
2023/03/08 10:52:35;;;;;;;62.17;26.40;;;3.70;99.90;;;;;;5036549;28;20669;-71
2023/03/08 10:55:28;;;;;;;66.03;26.57;;;3.70;99.90;;;;;;5030745;28;20671;-70
2023/03/08 10:58:00;;;;;;;66.27;26.13;;;3.70;99.90;;;;;;5046832;28;20231;-70
2023/03/08 11:00:38;;;;;;;63.77;27.33;;;3.80;99.90;;;;;;5027609;28;20313;-70
2023/03/08 11:03:19;;;;;;;62.23;26.63;;;3.90;99.90;;;;;;5044546;28;20300;-71
2023/03/08 11:05:59;;;;;;;58.67;25.53;;;4.00;99.90;;;;;;5048155;28;20312;-71
2023/03/08 11:08:28;;;;;;;60.17;26.53;;;4.10;99.90;;;;;;5047995;28;20201;-71
2023/03/08 11:11:06;;;;;;;66.13;26.93;;;4.10;99.90;;;;;;5045920;28;20239;-71
2023/03/08 11:13:36;;;;;;;61.30;25.10;;;4.20;99.90;;;;;;5047958;28;20224;-72
2023/03/08 11:16:06;;;;;;;58.53;25.50;;;4.30;99.90;;;;;;5028500;28;20293;-72
2023/03/08 11:18:57;;;;;;;58.20;25.43;;;4.40;99.90;;;;;;5048103;28;20289;-72
2023/03/08 11:21:27;;;;;;;57.53;24.60;;;4.40;99.90;;;;;;5046321;28;20572;-71
2023/03/08 11:24:10;;;;;;;47.90;23.40;;;4.30;99.90;;;;;;5045030;28;20244;-71
2023/03/08 11:26:46;;;;;;;51.00;21.87;;;4.20;99.90;;;;;;5047442;28;20204;-71
2023/03/08 11:29:19;;;;;;;49.77;23.10;;;4.20;99.90;;;;;;5044773;28;20685;-72
2023/03/08 11:32:05;;;;;;;49.10;22.93;;;4.20;99.90;;;;;;5041020;28;20298;-71
2023/03/08 11:34:47;;;;;;;48.50;21.60;;;4.30;99.90;;;;;;5025547;28;20620;-71
2023/03/08 11:37:24;;;;;;;48.87;21.67;;;4.30;99.90;;;;;;5044702;28;20197;-72
2023/03/08 11:40:33;;;;;;;45.87;20.63;;;4.30;99.90;;;;;;5044356;28;20198;-72
2023/03/08 11:43:28;;;;;;;43.93;21.97;;;4.40;99.90;;;;;;5045067;28;20236;-73
2023/03/08 11:45:59;;;;;;;43.40;19.70;;;4.50;99.90;;;;;;5045554;28;20247;-72
2023/03/08 11:48:42;;;;;;;46.47;21.60;;;4.50;99.90;;;;;;5023419;28;20258;-70
2023/03/08 11:51:37;;;;;;;48.70;22.10;;;4.50;99.90;;;;;;5034418;28;20205;-71
2023/03/08 11:54:33;;;;;;;46.27;19.07;;;4.50;99.90;;;;;;5039822;28;20296;-71
2023/03/08 11:57:03;;;;;;;42.47;20.43;;;4.50;99.90;;;;;;5027046;28;20228;-72
2023/03/08 11:59:40;;;;;;;39.70;19.20;;;4.40;99.90;;;;;;5043017;28;20300;-72
2023/03/08 12:02:09;;;;;;;43.03;20.07;;;4.40;99.90;;;;;;5031253;28;20220;-71
2023/03/08 12:04:53;;;;;;;44.93;20.07;;;4.50;99.90;;;;;;5040260;28;20284;-72
2023/03/08 12:07:34;;;;;;;47.63;20.97;;;4.40;99.90;;;;;;5040157;28;20642;-72
2023/03/08 12:10:07;;;;;;;44.43;20.50;;;4.50;99.90;;;;;;5025246;28;20195;-72
2023/03/08 12:12:39;;;;;;;42.73;20.30;;;4.60;99.90;;;;;;5050668;28;20193;-71
2023/03/08 12:15:33;;;;;;;49.77;21.93;;;4.60;99.90;;;;;;5046308;28;20239;-72
2023/03/08 12:18:29;;;;;;;46.00;20.70;;;4.70;99.90;;;;;;5029440;28;20222;-72
2023/03/08 12:21:10;;;;;;;36.87;17.93;;;5.00;99.90;;;;;;5042322;28;20208;-72
2023/03/08 12:24:03;;;;;;;37.20;18.00;;;5.00;99.90;;;;;;5027825;28;20209;-72
2023/03/08 12:26:44;;;;;;;39.03;17.37;;;5.00;99.90;;;;;;5041603;28;20213;-72
2023/03/08 12:29:45;;;;;;;38.50;17.87;;;4.90;99.90;;;;;;5043188;28;20285;-72
2023/03/08 12:32:13;;;;;;;36.43;14.93;;;5.00;99.90;;;;;;4993530;28;20638;-72
2023/03/08 12:34:43;;;;;;;37.13;17.23;;;5.00;99.90;;;;;;5043571;28;20213;-72
2023/03/08 12:37:21;;;;;;;35.43;17.43;;;5.10;99.90;;;;;;5039773;28;20208;-72
2023/03/08 12:40:25;;;;;;;37.73;17.43;;;5.10;99.90;;;;;;5040533;28;20205;-71
2023/03/08 12:43:08;;;;;;;31.73;15.67;;;5.10;99.90;;;;;;5015483;28;20259;-73
2023/03/08 12:45:35;;;;;;;28.93;14.93;;;5.00;99.90;;;;;;5041693;28;20263;-71
2023/03/08 12:48:04;;;;;;;33.47;16.53;;;5.00;99.90;;;;;;5039612;28;20219;-71
2023/03/08 12:50:39;;;;;;;30.93;16.10;;;5.00;99.90;;;;;;5042003;28;20205;-72
2023/03/08 12:53:31;;;;;;;35.80;16.27;;;5.00;99.90;;;;;;5043678;28;20209;-72